createdAt,value
2022-12-03T00:01:39.975Z,28.73
2022-12-03T00:04:07.957Z,27.52
2022-12-03T00:06:35.609Z,30.42
2022-12-03T00:09:05.022Z,33.35
2022-12-03T00:11:33.348Z,30.77
2022-12-03T00:14:00.936Z,32.97
2022-12-03T00:16:30.222Z,30.30
2022-12-03T00:18:58.020Z,31.52
2022-12-03T00:21:25.664Z,31.77
2022-12-03T00:23:53.312Z,30.15
2022-12-03T00:26:20.911Z,32.83
2022-12-03T00:28:49.387Z,30.38
2022-12-03T00:31:21.385Z,33.25
2022-12-03T00:33:52.616Z,31.73
2022-12-03T00:36:20.586Z,30.20
2022-12-03T00:38:48.261Z,26.95
2022-12-03T00:41:15.926Z,33.33
2022-12-03T00:43:43.712Z,35.55
2022-12-03T00:48:47.561Z,33.83
2022-12-03T00:51:15.374Z,32.00
2022-12-03T00:53:43.073Z,30.52
2022-12-03T00:56:11.372Z,32.92
2022-12-03T00:58:38.965Z,34.05
2022-12-03T01:01:06.685Z,34.30
2022-12-03T01:03:34.550Z,27.33
2022-12-03T01:06:02.746Z,30.92
2022-12-03T01:08:36.303Z,32.22
2022-12-03T01:11:04.083Z,31.48
2022-12-03T01:13:31.787Z,31.00
2022-12-03T01:15:59.465Z,32.35
2022-12-03T01:18:27.426Z,33.50
2022-12-03T01:20:55.213Z,34.45
2022-12-03T01:23:23.167Z,32.97
2022-12-03T01:25:50.788Z,35.97
2022-12-03T01:28:18.368Z,34.22
2022-12-03T01:31:04.335Z,33.28
2022-12-03T01:33:31.979Z,32.25
2022-12-03T01:35:59.494Z,32.65
2022-12-03T01:38:27.018Z,34.10
2022-12-03T01:40:54.875Z,36.22
2022-12-03T01:43:22.495Z,31.27
2022-12-03T01:45:54.554Z,35.13
2022-12-03T01:48:22.306Z,35.50
2022-12-03T01:50:50.131Z,31.55
2022-12-03T01:53:19.090Z,29.90
2022-12-03T01:55:49.060Z,31.08
2022-12-03T01:58:22.601Z,29.55
2022-12-03T02:00:50.164Z,30.77
2022-12-03T02:03:26.358Z,30.05
2022-12-03T02:05:54.362Z,33.67
2022-12-03T02:08:35.388Z,28.90
2022-12-03T02:11:16.129Z,29.75
2022-12-03T02:13:50.220Z,32.00
2022-12-03T02:16:18.074Z,25.30
2022-12-03T02:18:46.038Z,26.92
2022-12-03T02:21:41.446Z,28.00
2022-12-03T02:24:47.067Z,28.90
2022-12-03T02:27:14.657Z,31.00
2022-12-03T02:29:42.198Z,25.90
2022-12-03T02:32:09.905Z,24.35
2022-12-03T02:34:44.547Z,28.40
2022-12-03T02:37:37.339Z,29.02
2022-12-03T02:40:10.861Z,32.63
2022-12-03T02:42:39.327Z,30.38
2022-12-03T02:45:21.603Z,30.60
2022-12-03T02:48:11.402Z,33.10
2022-12-03T02:50:43.708Z,32.40
2022-12-03T02:53:19.098Z,30.23
2022-12-03T02:55:47.780Z,30.98
2022-12-03T02:58:15.945Z,32.63
2022-12-03T03:00:45.317Z,34.50
2022-12-03T03:03:14.193Z,27.55
2022-12-03T03:05:42.146Z,30.25
2022-12-03T03:08:11.839Z,28.98
2022-12-03T03:10:41.651Z,31.38
2022-12-03T03:13:18.899Z,33.85
2022-12-03T03:15:47.097Z,29.50
2022-12-03T03:18:16.009Z,29.58
2022-12-03T03:20:44.766Z,33.33
2022-12-03T03:23:12.334Z,31.15
2022-12-03T03:25:43.275Z,32.25
2022-12-03T03:28:11.885Z,30.40
2022-12-03T03:30:41.267Z,31.98
2022-12-03T03:33:10.504Z,32.88
2022-12-03T03:38:07.651Z,35.17
2022-12-03T03:40:35.746Z,30.48
2022-12-03T03:43:03.645Z,32.75
2022-12-03T03:45:31.494Z,35.58
2022-12-03T03:48:00.670Z,32.80
2022-12-03T03:53:01.472Z,33.65
2022-12-03T03:55:30.112Z,28.98
2022-12-03T03:57:58.096Z,28.77
2022-12-03T04:00:26.218Z,30.52
2022-12-03T04:02:55.471Z,31.10
2022-12-03T04:05:25.078Z,27.38
2022-12-03T04:07:52.900Z,29.85
2022-12-03T04:10:38.875Z,31.95
2022-12-03T04:13:06.916Z,29.92
2022-12-03T04:15:34.796Z,31.50
2022-12-03T04:18:21.476Z,31.70
2022-12-03T04:20:49.476Z,34.03
2022-12-03T04:23:17.686Z,32.33
2022-12-03T04:26:03.602Z,30.85
2022-12-03T04:28:49.328Z,28.38
2022-12-03T04:31:35.507Z,31.92
2022-12-03T04:34:33.858Z,34.00
2022-12-03T04:37:01.563Z,33.45
2022-12-03T04:39:29.142Z,35.63
2022-12-03T04:41:56.795Z,31.55
2022-12-03T04:44:33.289Z,33.85
2022-12-03T04:47:07.981Z,32.80
2022-12-03T04:49:41.926Z,27.40
2022-12-03T04:52:11.438Z,31.98
2022-12-03T04:54:39.868Z,31.95
2022-12-03T04:57:08.317Z,35.10
2022-12-03T04:59:37.242Z,31.08
2022-12-03T05:04:34.450Z,30.33
2022-12-03T05:07:02.128Z,31.07
2022-12-03T05:09:30.047Z,30.25
2022-12-03T05:11:57.727Z,30.90
2022-12-03T05:14:25.320Z,28.27
2022-12-03T05:16:52.981Z,31.73
2022-12-03T05:19:20.834Z,30.88
2022-12-03T05:21:48.476Z,31.02
2022-12-03T05:24:16.361Z,32.03
2022-12-03T05:26:44.182Z,33.30
2022-12-03T05:29:11.904Z,28.13
2022-12-03T05:31:39.633Z,29.80
2022-12-03T05:34:07.333Z,32.53
2022-12-03T05:36:34.952Z,29.60
2022-12-03T05:39:02.571Z,30.42
2022-12-03T05:41:48.532Z,31.25
2022-12-03T05:44:20.249Z,30.02
2022-12-03T05:46:48.359Z,30.50
2022-12-03T05:49:15.997Z,30.35
2022-12-03T05:51:43.851Z,34.88
2022-12-03T05:54:11.709Z,30.30
2022-12-03T05:56:39.279Z,30.75
2022-12-03T05:59:06.998Z,29.80
2022-12-03T06:01:34.660Z,31.20
2022-12-03T06:04:02.297Z,31.88
2022-12-03T06:06:29.911Z,31.10
2022-12-03T06:08:57.671Z,28.15
2022-12-03T06:11:25.390Z,32.00
2022-12-03T06:13:53.005Z,32.13
2022-12-03T06:16:20.675Z,35.30
2022-12-03T06:18:48.291Z,30.17
2022-12-03T06:21:16.009Z,33.40
2022-12-03T06:23:44.872Z,28.95
2022-12-03T06:26:14.328Z,31.20
2022-12-03T06:28:46.361Z,30.90
2022-12-03T06:31:14.793Z,31.25
2022-12-03T06:33:42.405Z,34.80
2022-12-03T06:36:10.192Z,35.95
2022-12-03T06:38:37.813Z,35.85
2022-12-03T06:41:05.539Z,36.80
2022-12-03T06:43:33.267Z,34.33
2022-12-03T06:46:00.972Z,49.30
2022-12-03T06:48:28.670Z,34.40
2022-12-03T06:50:56.305Z,43.63
2022-12-03T06:53:34.004Z,37.80
2022-12-03T06:56:02.914Z,35.55
2022-12-03T06:58:30.787Z,35.30
2022-12-03T07:00:58.376Z,39.08
2022-12-03T07:03:26.066Z,36.13
2022-12-03T07:05:53.663Z,35.72
2022-12-03T07:08:21.333Z,36.35
2022-12-03T07:10:48.945Z,35.92
2022-12-03T07:13:16.554Z,39.55
2022-12-03T07:15:44.304Z,38.72
2022-12-03T07:18:12.084Z,41.45
2022-12-03T07:20:39.756Z,37.22
2022-12-03T07:23:07.424Z,39.38
2022-12-03T07:25:35.125Z,39.13
2022-12-03T07:28:02.951Z,41.15
2022-12-03T07:30:30.545Z,44.45
2022-12-03T07:32:58.146Z,43.80
2022-12-03T07:35:25.759Z,41.67
2022-12-03T07:37:53.376Z,37.08
2022-12-03T07:40:20.957Z,37.35
2022-12-03T07:42:48.567Z,40.28
2022-12-03T07:45:16.276Z,38.15
2022-12-03T07:47:43.857Z,38.30
2022-12-03T07:50:11.942Z,39.13
2022-12-03T07:52:39.668Z,35.63
2022-12-03T07:55:08.007Z,38.70
2022-12-03T07:57:35.553Z,40.28
2022-12-03T08:00:05.384Z,37.03
2022-12-03T08:02:33.105Z,39.22
2022-12-03T08:05:00.751Z,37.20
2022-12-03T08:07:28.425Z,42.83
2022-12-03T08:09:56.307Z,42.30
2022-12-03T08:12:40.021Z,40.63
2022-12-03T08:15:15.552Z,36.33
2022-12-03T08:17:45.463Z,39.47
2022-12-03T08:20:19.485Z,38.15
2022-12-03T08:22:51.555Z,35.60
2022-12-03T08:25:46.230Z,34.83
2022-12-03T08:28:23.899Z,40.10
2022-12-03T08:31:13.646Z,41.10
2022-12-03T08:33:41.825Z,42.75
2022-12-03T08:36:31.306Z,44.88
2022-12-03T08:41:49.620Z,44.50
2022-12-03T08:44:30.246Z,42.65
2022-12-03T08:47:10.216Z,46.95
2022-12-03T08:49:38.540Z,46.67
2022-12-03T08:52:20.274Z,41.23
2022-12-03T08:54:56.545Z,40.60
2022-12-03T08:57:33.203Z,40.83
2022-12-03T09:00:14.987Z,43.42
2022-12-03T09:03:00.962Z,44.63
2022-12-03T09:05:33.289Z,43.70
2022-12-03T09:08:04.211Z,40.70
2022-12-03T09:10:31.802Z,42.33
2022-12-03T09:12:59.501Z,43.40
2022-12-03T09:15:28.336Z,41.00
2022-12-03T09:17:56.100Z,39.88
2022-12-03T09:20:23.732Z,39.42
2022-12-03T09:22:51.735Z,39.95
2022-12-03T09:25:19.501Z,35.85
2022-12-03T09:27:47.367Z,36.35
2022-12-03T09:30:15.426Z,37.35
2022-12-03T09:32:43.578Z,35.70
2022-12-03T09:35:11.253Z,37.83
2022-12-03T09:37:38.826Z,34.33
2022-12-03T09:40:08.137Z,32.33
2022-12-03T09:42:36.135Z,33.47
2022-12-03T09:45:10.834Z,36.28
2022-12-03T09:47:45.474Z,33.17
2022-12-03T09:50:40.772Z,31.98
2022-12-03T09:53:45.842Z,34.13
2022-12-03T09:56:21.851Z,32.45
2022-12-03T09:58:50.033Z,35.08
2022-12-03T10:01:19.656Z,35.10
2022-12-03T10:03:52.616Z,37.00
2022-12-03T10:06:24.304Z,35.15
2022-12-03T10:08:55.847Z,35.65
2022-12-03T10:11:25.854Z,35.55
2022-12-03T10:13:58.510Z,33.97
2022-12-03T10:16:27.978Z,35.85
2022-12-03T10:18:59.856Z,34.85
2022-12-03T10:21:36.851Z,31.77
2022-12-03T10:24:25.972Z,38.53
2022-12-03T10:27:00.336Z,34.35
2022-12-03T10:29:33.945Z,38.55
2022-12-03T10:32:11.689Z,38.60
2022-12-03T10:34:44.634Z,36.40
2022-12-03T10:37:33.090Z,36.72
2022-12-03T10:40:09.372Z,38.17
2022-12-03T10:46:21.108Z,32.38
2022-12-03T10:49:29.944Z,31.13
2022-12-03T10:52:35.389Z,32.47
2022-12-03T10:55:42.102Z,29.73
2022-12-03T10:59:52.441Z,33.42
2022-12-03T11:02:36.666Z,28.88
2022-12-03T11:05:58.882Z,30.42
2022-12-03T11:08:25.216Z,30.17
2022-12-03T11:11:28.863Z,29.52
2022-12-03T11:14:01.211Z,30.73
2022-12-03T11:16:41.025Z,32.72
2022-12-03T11:19:41.131Z,30.55
2022-12-03T11:22:14.008Z,28.15
2022-12-03T11:24:47.100Z,30.60
2022-12-03T11:27:26.795Z,32.47
2022-12-03T11:29:58.932Z,28.77
2022-12-03T11:32:39.343Z,29.33
2022-12-03T11:35:15.941Z,30.50
2022-12-03T11:38:52.597Z,34.08
2022-12-03T11:41:32.871Z,32.42
2022-12-03T11:44:28.986Z,31.10
2022-12-03T11:47:03.274Z,33.65
2022-12-03T11:49:38.860Z,31.42
2022-12-03T11:52:25.642Z,32.33
2022-12-03T11:55:04.458Z,33.22
2022-12-03T11:58:03.143Z,40.65
2022-12-03T12:00:36.441Z,31.20
2022-12-03T12:03:07.587Z,34.70
2022-12-03T12:05:35.986Z,32.33
2022-12-03T12:08:18.176Z,32.03
2022-12-03T12:10:54.750Z,36.72
2022-12-03T12:13:36.125Z,30.50
2022-12-03T12:16:08.548Z,36.67
2022-12-03T12:18:42.812Z,34.95
2022-12-03T12:21:50.085Z,39.30
2022-12-03T12:24:47.099Z,39.50
2022-12-03T12:27:45.265Z,33.53
2022-12-03T12:30:32.122Z,33.22
2022-12-03T12:33:16.006Z,35.03
2022-12-03T12:35:43.891Z,33.00
2022-12-03T12:38:26.354Z,31.80
2022-12-03T12:40:59.358Z,35.33
2022-12-03T12:43:31.029Z,39.03
2022-12-03T12:46:45.590Z,37.00
2022-12-03T12:49:00.092Z,35.20
2022-12-03T12:51:30.738Z,38.83
2022-12-03T12:53:58.718Z,36.08
2022-12-03T12:56:50.048Z,36.67
2022-12-03T12:59:40.805Z,34.05
2022-12-03T13:02:52.581Z,32.78
2022-12-03T13:05:56.271Z,33.33
2022-12-03T13:08:56.458Z,34.90
2022-12-03T13:11:58.879Z,37.88
2022-12-03T13:14:55.966Z,41.53
2022-12-03T13:17:37.684Z,36.20
2022-12-03T13:20:59.192Z,37.65
2022-12-03T13:26:47.464Z,33.00
2022-12-03T13:29:23.570Z,37.75
2022-12-03T13:32:15.545Z,37.40
2022-12-03T13:34:47.118Z,36.53
2022-12-03T13:37:25.934Z,36.13
2022-12-03T13:40:20.616Z,35.45
2022-12-03T13:42:58.946Z,49.43
2022-12-03T13:45:35.320Z,39.17
2022-12-03T13:48:23.140Z,38.78
2022-12-03T13:50:52.604Z,34.78
2022-12-03T13:53:37.827Z,34.55
2022-12-03T13:56:31.965Z,35.50
2022-12-03T13:59:07.451Z,34.80
2022-12-03T14:01:45.862Z,34.88
2022-12-03T14:04:18.088Z,37.88
2022-12-03T14:06:52.436Z,33.53
2022-12-03T14:09:23.547Z,35.58
2022-12-03T14:12:13.433Z,36.47
2022-12-03T14:14:44.126Z,35.03
2022-12-03T14:17:17.076Z,35.22
2022-12-03T14:20:01.297Z,33.40
2022-12-03T14:22:33.844Z,42.38
2022-12-03T14:25:01.589Z,36.13
2022-12-03T14:27:32.955Z,33.55
2022-12-03T14:30:25.122Z,30.42
2022-12-03T14:32:55.659Z,38.25
2022-12-03T14:35:58.169Z,31.77
2022-12-03T14:38:31.696Z,33.30
2022-12-03T14:41:44.855Z,31.90
2022-12-03T14:48:15.325Z,41.65
2022-12-03T14:50:55.288Z,33.22
2022-12-03T14:53:46.516Z,30.27
2022-12-03T14:56:28.105Z,35.17
2022-12-03T14:59:06.989Z,29.05
2022-12-03T15:01:40.528Z,41.00
2022-12-03T15:07:04.895Z,37.75
2022-12-03T15:09:37.856Z,42.65
2022-12-03T15:12:13.135Z,32.88
2022-12-03T15:14:43.546Z,34.78
2022-12-03T15:17:12.492Z,35.80
2022-12-03T15:19:51.609Z,36.88
2022-12-03T15:22:20.072Z,33.10
2022-12-03T15:24:48.220Z,34.65
2022-12-03T15:27:16.101Z,31.13
2022-12-03T15:29:44.185Z,35.97
2022-12-03T15:32:12.124Z,37.15
2022-12-03T15:34:43.016Z,43.05
2022-12-03T15:37:14.931Z,37.40
2022-12-03T15:39:48.343Z,31.88
2022-12-03T15:42:24.205Z,30.05
2022-12-03T15:44:54.651Z,33.38
2022-12-03T15:47:22.976Z,30.52
2022-12-03T15:49:52.177Z,30.35
2022-12-03T15:52:20.153Z,31.02
2022-12-03T15:54:49.909Z,30.70
2022-12-03T15:57:19.285Z,33.80
2022-12-03T15:59:48.900Z,31.83
2022-12-03T16:02:19.983Z,37.28
2022-12-03T16:04:48.230Z,37.20
2022-12-03T16:07:16.198Z,31.45
2022-12-03T16:09:44.121Z,33.67
2022-12-03T16:12:12.191Z,33.78
2022-12-03T16:14:40.226Z,36.72
2022-12-03T16:17:08.450Z,33.10
2022-12-03T16:19:36.669Z,32.72
2022-12-03T16:22:06.045Z,34.03
2022-12-03T16:24:33.963Z,35.55
2022-12-03T16:27:02.544Z,35.65
2022-12-03T16:29:30.773Z,36.00
2022-12-03T16:31:58.890Z,32.97
2022-12-03T16:34:40.350Z,35.55
2022-12-03T16:37:09.617Z,35.97
2022-12-03T16:39:50.625Z,35.53
2022-12-03T16:42:18.459Z,35.65
2022-12-03T16:45:04.184Z,40.03
2022-12-03T16:47:34.442Z,35.42
2022-12-03T16:50:04.715Z,41.20
2022-12-03T16:52:36.864Z,41.15
2022-12-03T16:55:12.146Z,35.30
2022-12-03T16:58:00.413Z,48.67
2022-12-03T17:00:38.228Z,36.55
2022-12-03T17:03:13.778Z,38.70
2022-12-03T17:06:02.334Z,37.17
2022-12-03T17:08:35.758Z,31.63
2022-12-03T17:11:04.020Z,34.92
2022-12-03T17:13:34.768Z,36.37
2022-12-03T17:16:13.736Z,32.67
2022-12-03T17:18:41.884Z,31.23
2022-12-03T17:21:09.925Z,38.13
2022-12-03T17:23:37.707Z,38.85
2022-12-03T17:26:05.609Z,38.03
2022-12-03T17:28:33.461Z,37.17
2022-12-03T17:31:04.962Z,42.38
2022-12-03T17:33:33.210Z,38.20
2022-12-03T17:36:01.449Z,39.00
2022-12-03T17:38:35.650Z,40.67
2022-12-03T17:41:08.247Z,36.15
2022-12-03T17:46:21.650Z,38.20
2022-12-03T17:48:49.700Z,40.67
2022-12-03T17:51:19.462Z,40.30
2022-12-03T17:53:49.761Z,41.78
2022-12-03T17:56:18.164Z,39.63
2022-12-03T17:58:48.492Z,38.20
2022-12-03T18:01:19.548Z,35.55
2022-12-03T18:03:50.047Z,37.10
2022-12-03T18:06:20.389Z,38.60
2022-12-03T18:08:53.526Z,36.25
2022-12-03T18:11:25.620Z,36.22
2022-12-03T18:13:53.799Z,33.17
2022-12-03T18:16:27.461Z,34.08
2022-12-03T18:18:58.252Z,37.58
2022-12-03T18:21:30.838Z,36.22
2022-12-03T18:24:00.402Z,37.97
2022-12-03T18:26:40.282Z,39.67
2022-12-03T18:29:08.218Z,43.00
2022-12-03T18:31:36.562Z,33.22
2022-12-03T18:34:04.799Z,39.42
2022-12-03T18:36:36.519Z,36.55
2022-12-03T18:39:09.437Z,33.88
2022-12-03T18:41:42.967Z,34.25
2022-12-03T18:44:17.135Z,38.90
2022-12-03T18:46:53.675Z,38.33
2022-12-03T18:49:28.414Z,36.63
2022-12-03T18:51:59.903Z,37.28
2022-12-03T18:54:30.094Z,32.55
2022-12-03T18:56:59.391Z,34.15
2022-12-03T19:01:58.389Z,36.63
2022-12-03T19:04:27.092Z,41.10
2022-12-03T19:06:57.249Z,36.63
2022-12-03T19:09:25.417Z,33.47
2022-12-03T19:11:56.420Z,47.97
2022-12-03T19:14:26.842Z,36.10
2022-12-03T19:16:55.058Z,37.58
2022-12-03T19:19:30.742Z,34.47
2022-12-03T19:22:10.075Z,34.78
2022-12-03T19:24:41.112Z,34.90
2022-12-03T19:27:14.026Z,35.40
2022-12-03T19:29:42.381Z,35.83
2022-12-03T19:32:23.430Z,35.13
2022-12-03T19:34:54.833Z,35.53
2022-12-03T19:37:23.025Z,29.92
2022-12-03T19:39:56.372Z,32.65
2022-12-03T19:42:28.120Z,34.28
2022-12-03T19:45:13.807Z,32.47
2022-12-03T19:47:47.856Z,30.65
2022-12-03T19:50:23.545Z,33.03
2022-12-03T19:52:51.887Z,31.67
2022-12-03T19:55:19.764Z,35.58
2022-12-03T19:57:50.701Z,33.83
2022-12-03T20:00:22.540Z,33.75
2022-12-03T20:02:53.617Z,31.45
2022-12-03T20:05:30.319Z,35.97
2022-12-03T20:08:02.219Z,36.72
2022-12-03T20:10:36.116Z,42.13
2022-12-03T20:13:04.525Z,42.75
2022-12-03T20:15:38.012Z,46.83
2022-12-03T20:18:13.970Z,38.72
2022-12-03T20:20:42.136Z,37.10
2022-12-03T20:23:10.621Z,35.35
2022-12-03T20:25:44.234Z,35.13
2022-12-03T20:28:13.776Z,36.75
2022-12-03T20:30:45.488Z,39.40
2022-12-03T20:33:16.423Z,34.08
2022-12-03T20:35:44.355Z,34.15
2022-12-03T20:38:12.332Z,34.25
2022-12-03T20:40:40.328Z,36.75
2022-12-03T20:43:08.306Z,38.60
2022-12-03T20:45:36.340Z,45.05
2022-12-03T20:48:04.447Z,43.22
2022-12-03T20:50:32.611Z,38.80
2022-12-03T20:53:23.867Z,73.13
2022-12-03T20:56:02.835Z,39.90
2022-12-03T20:58:37.208Z,37.15
2022-12-03T21:01:26.533Z,43.83
2022-12-03T21:03:57.761Z,45.72
2022-12-03T21:06:29.919Z,48.05
2022-12-03T21:08:59.426Z,43.47
2022-12-03T21:14:08.220Z,43.97
2022-12-03T21:19:31.022Z,41.83
2022-12-03T21:21:59.025Z,45.47
2022-12-03T21:24:28.770Z,51.47
2022-12-03T21:26:56.814Z,42.88
2022-12-03T21:29:52.443Z,46.88
2022-12-03T21:32:23.398Z,45.72
2022-12-03T21:34:54.208Z,52.60
2022-12-03T21:37:29.879Z,50.50
2022-12-03T21:39:57.992Z,48.72
2022-12-03T21:42:35.617Z,50.75
2022-12-03T21:45:08.506Z,48.63
2022-12-03T21:47:37.641Z,43.67
2022-12-03T21:50:11.597Z,45.30
2022-12-03T21:52:39.775Z,48.65
2022-12-03T21:55:10.230Z,47.13
2022-12-03T21:57:38.689Z,51.85
2022-12-03T22:00:08.918Z,49.22
2022-12-03T22:02:46.928Z,45.40
2022-12-03T22:05:14.947Z,51.47
2022-12-03T22:07:45.335Z,62.42
2022-12-03T22:30:26.725Z,47.10
2022-12-03T22:32:54.342Z,49.78
2022-12-03T22:35:21.980Z,51.40
2022-12-03T22:38:14.812Z,52.47
2022-12-03T22:40:42.636Z,50.70
2022-12-03T22:43:10.235Z,46.22
2022-12-03T22:45:37.913Z,48.47
2022-12-03T22:48:06.101Z,42.50
2022-12-03T22:50:33.807Z,45.58
2022-12-03T22:53:04.590Z,45.90
2022-12-03T22:55:32.317Z,40.65
2022-12-03T22:58:03.596Z,45.75
2022-12-03T23:00:35.376Z,42.53
2022-12-03T23:03:05.013Z,42.22
2022-12-03T23:05:39.749Z,44.08
2022-12-03T23:08:11.349Z,48.08
2022-12-03T23:10:44.181Z,41.67
2022-12-03T23:13:13.087Z,42.97
2022-12-03T23:15:49.239Z,41.75
2022-12-03T23:18:18.376Z,43.95
2022-12-03T23:20:53.726Z,41.92
2022-12-03T23:23:23.987Z,43.95
2022-12-03T23:26:07.434Z,43.65
2022-12-03T23:28:38.331Z,41.88
2022-12-03T23:31:18.831Z,39.58
2022-12-03T23:33:49.501Z,42.15
2022-12-03T23:36:17.856Z,46.13
2022-12-03T23:38:48.958Z,40.53
2022-12-03T23:41:20.451Z,38.75
2022-12-03T23:43:48.682Z,45.33
2022-12-03T23:46:21.056Z,45.80
2022-12-03T23:48:49.863Z,38.03
2022-12-03T23:51:22.375Z,42.92
2022-12-03T23:53:50.577Z,40.72
2022-12-03T23:56:22.570Z,38.75
2022-12-03T23:58:52.625Z,42.53
